Time;durP1;ratioP1;P1;durP2;ratioP2;P2;SDS_P1;SDS_P2;PMS_P1;PMS_P2;Temp;Humidity;BMP_temperature;BMP_pressure;BME280_temperature;BME280_humidity;BME280_pressure;Samples;Min_cycle;Max_cycle;Signal;HPM_P1;HPM_P2
2023/04/17 00:01:11;;;;;;;19.10;11.00;;;;;;;;;;5020750;28;20029;-68
2023/04/17 00:03:37;;;;;;;18.23;10.52;;;;;;;;;;5016916;28;20566;-68
2023/04/17 00:06:03;;;;;;;19.83;11.18;;;;;;;;;;5010499;28;20029;-67
2023/04/17 00:08:28;;;;;;;21.50;10.35;;;;;;;;;;5011285;28;20017;-68
2023/04/17 00:10:53;;;;;;;17.90;10.55;;;;;;;;;;5014304;28;20033;-68
2023/04/17 00:13:18;;;;;;;19.45;11.57;;;;;;;;;;5006532;28;20021;-68
2023/04/17 00:15:43;;;;;;;19.17;11.27;;;;;;;;;;5017797;28;20026;-68
2023/04/17 00:18:09;;;;;;;19.75;10.48;;;;;;;;;;5021277;28;20455;-68
2023/04/17 00:20:34;;;;;;;19.05;10.43;;;;;;;;;;5018932;28;20034;-68
2023/04/17 00:22:59;;;;;;;15.65;9.98;;;;;;;;;;5014484;28;20025;-67
2023/04/17 00:25:24;;;;;;;17.92;9.75;;;;;;;;;;5017521;28;20033;-69
2023/04/17 00:27:50;;;;;;;18.95;10.52;;;;;;;;;;5019315;28;20021;-69
2023/04/17 00:30:15;;;;;;;15.05;9.60;;;;;;;;;;5014743;28;20022;-67
2023/04/17 00:32:40;;;;;;;19.90;11.07;;;;;;;;;;5017543;28;20040;-69
2023/04/17 00:35:06;;;;;;;18.27;10.77;;;;;;;;;;5020998;28;20451;-68
2023/04/17 00:37:31;;;;;;;17.88;10.15;;;;;;;;;;5009921;28;20036;-68
2023/04/17 00:39:56;;;;;;;15.82;10.07;;;;;;;;;;5017102;28;20028;-68
2023/04/17 00:42:22;;;;;;;16.85;10.52;;;;;;;;;;5016384;28;20034;-69
2023/04/17 00:44:47;;;;;;;17.48;10.63;;;;;;;;;;5013135;28;20395;-69
2023/04/17 00:47:12;;;;;;;18.75;10.02;;;;;;;;;;5019642;28;20036;-69
2023/04/17 00:49:37;;;;;;;18.85;9.82;;;;;;;;;;5016747;28;20032;-69
2023/04/17 00:52:03;;;;;;;17.88;9.95;;;;;;;;;;5016368;28;20041;-69
2023/04/17 00:54:28;;;;;;;16.55;10.10;;;;;;;;;;5012943;28;20034;-69
2023/04/17 00:56:55;;;;;;;21.42;9.73;;;;;;;;;;5015483;28;20037;-66
2023/04/17 00:59:21;;;;;;;17.80;10.38;;;;;;;;;;5018949;28;20095;-67
2023/04/17 01:01:46;;;;;;;13.77;9.15;;;;;;;;;;5017070;28;20443;-69
2023/04/17 01:04:12;;;;;;;18.25;9.63;;;;;;;;;;5016615;28;20022;-68
2023/04/17 01:06:37;;;;;;;17.05;8.63;;;;;;;;;;5016454;28;20014;-68
2023/04/17 01:09:03;;;;;;;16.63;9.77;;;;;;;;;;5015593;28;20033;-69
2023/04/17 01:11:28;;;;;;;17.38;9.93;;;;;;;;;;5017911;28;20017;-69
2023/04/17 01:13:53;;;;;;;20.25;9.80;;;;;;;;;;5018024;28;20029;-68
2023/04/17 01:16:19;;;;;;;17.65;8.98;;;;;;;;;;5014231;28;20506;-67
2023/04/17 01:18:46;;;;;;;15.52;9.25;;;;;;;;;;5016983;28;20082;-69
2023/04/17 01:21:11;;;;;;;14.98;8.93;;;;;;;;;;5016558;28;20029;-68
2023/04/17 01:23:44;;;;;;;13.38;8.70;;;;;;;;;;5013270;28;20056;-69
2023/04/17 01:26:14;;;;;;;16.10;8.32;;;;;;;;;;5009426;28;20041;-68
2023/04/17 01:28:40;;;;;;;14.55;8.82;;;;;;;;;;5015394;28;20069;-69
2023/04/17 01:31:05;;;;;;;14.48;8.60;;;;;;;;;;5019611;28;20123;-69
2023/04/17 01:33:30;;;;;;;14.10;8.57;;;;;;;;;;5017496;28;20568;-66
2023/04/17 01:35:55;;;;;;;15.70;7.80;;;;;;;;;;5017595;28;20510;-68
2023/04/17 01:38:21;;;;;;;13.80;8.75;;;;;;;;;;5016897;28;20022;-68
2023/04/17 01:40:46;;;;;;;15.25;7.95;;;;;;;;;;5013817;28;20046;-68
2023/04/17 01:43:11;;;;;;;14.80;8.00;;;;;;;;;;5014758;28;20022;-68
2023/04/17 01:45:36;;;;;;;17.35;9.20;;;;;;;;;;5019034;28;20659;-69
2023/04/17 01:48:02;;;;;;;14.55;8.63;;;;;;;;;;5011555;28;20522;-68
2023/04/17 01:50:27;;;;;;;15.07;9.13;;;;;;;;;;5016440;28;20022;-69
2023/04/17 01:52:52;;;;;;;19.05;9.38;;;;;;;;;;5009975;28;20072;-69
2023/04/17 01:55:17;;;;;;;17.15;8.82;;;;;;;;;;5016809;28;20033;-69
2023/04/17 01:57:42;;;;;;;14.50;8.38;;;;;;;;;;5016562;28;20026;-69
2023/04/17 02:00:09;;;;;;;16.30;9.95;;;;;;;;;;5015809;28;20080;-68
2023/04/17 02:02:34;;;;;;;18.45;10.23;;;;;;;;;;5012366;28;20467;-68
2023/04/17 02:05:00;;;;;;;14.68;9.55;;;;;;;;;;5018147;28;20030;-68
2023/04/17 02:07:25;;;;;;;17.73;9.85;;;;;;;;;;5011198;28;20128;-68
2023/04/17 02:09:51;;;;;;;12.70;9.00;;;;;;;;;;5010636;28;20122;-68
2023/04/17 02:12:16;;;;;;;15.15;9.27;;;;;;;;;;5019012;28;20030;-68
2023/04/17 02:14:41;;;;;;;18.55;9.45;;;;;;;;;;5015001;28;20040;-68
2023/04/17 02:17:06;;;;;;;17.55;9.43;;;;;;;;;;5016876;28;20025;-68
2023/04/17 02:19:32;;;;;;;23.02;10.35;;;;;;;;;;5017184;28;20478;-67
2023/04/17 02:21:57;;;;;;;15.00;9.60;;;;;;;;;;5014861;28;20025;-69
2023/04/17 02:24:22;;;;;;;19.88;10.20;;;;;;;;;;5016810;28;20022;-68
2023/04/17 02:26:48;;;;;;;16.60;10.18;;;;;;;;;;5017422;28;20060;-67
2023/04/17 02:29:13;;;;;;;19.90;11.40;;;;;;;;;;5014567;28;20105;-68
2023/04/17 02:31:40;;;;;;;20.27;10.88;;;;;;;;;;5012444;28;20026;-69
2023/04/17 02:34:05;;;;;;;17.95;10.07;;;;;;;;;;5017122;28;20024;-68
2023/04/17 02:36:30;;;;;;;21.35;11.70;;;;;;;;;;5021292;28;20409;-69
2023/04/17 02:38:56;;;;;;;20.45;12.00;;;;;;;;;;5014265;28;20776;-69
2023/04/17 02:41:21;;;;;;;19.67;11.07;;;;;;;;;;5016074;28;20386;-68
2023/04/17 02:43:46;;;;;;;24.20;11.48;;;;;;;;;;5013412;28;20101;-68
2023/04/17 02:46:11;;;;;;;19.55;11.93;;;;;;;;;;5019383;28;20022;-67
2023/04/17 02:48:37;;;;;;;19.20;9.90;;;;;;;;;;5020727;28;20021;-67
2023/04/17 02:51:02;;;;;;;15.82;10.35;;;;;;;;;;5021194;28;20494;-69
2023/04/17 02:53:27;;;;;;;18.83;11.40;;;;;;;;;;5022208;28;20025;-68
2023/04/17 02:55:52;;;;;;;20.50;10.20;;;;;;;;;;5019663;28;20148;-68
2023/04/17 02:58:17;;;;;;;18.83;10.40;;;;;;;;;;5018306;28;20037;-68
2023/04/17 03:00:43;;;;;;;22.30;10.80;;;;;;;;;;5018147;28;20029;-68
2023/04/17 03:03:08;;;;;;;18.73;11.13;;;;;;;;;;5016902;28;20387;-68
2023/04/17 03:05:33;;;;;;;20.30;11.32;;;;;;;;;;5014874;28;22750;-68
2023/04/17 03:07:58;;;;;;;18.13;11.60;;;;;;;;;;5015194;28;20029;-69
2023/04/17 03:10:24;;;;;;;19.73;11.50;;;;;;;;;;5015987;28;20033;-68
2023/04/17 03:12:49;;;;;;;18.92;11.45;;;;;;;;;;5018482;28;20033;-68
2023/04/17 03:15:14;;;;;;;20.30;11.60;;;;;;;;;;5020700;28;20021;-68
2023/04/17 03:17:40;;;;;;;19.33;10.45;;;;;;;;;;5019737;28;20037;-67
2023/04/17 03:20:06;;;;;;;19.58;10.77;;;;;;;;;;5020328;28;20108;-67
2023/04/17 03:22:31;;;;;;;20.67;11.27;;;;;;;;;;5018941;28;20529;-68
2023/04/17 03:24:57;;;;;;;19.52;11.43;;;;;;;;;;5005704;28;20107;-67
2023/04/17 03:27:23;;;;;;;21.10;11.55;;;;;;;;;;5014624;28;20129;-68
2023/04/17 03:29:49;;;;;;;19.17;11.20;;;;;;;;;;5010117;28;20022;-68
2023/04/17 03:32:15;;;;;;;19.13;11.50;;;;;;;;;;5011583;28;20084;-68
2023/04/17 03:34:40;;;;;;;18.83;10.73;;;;;;;;;;5018768;28;20467;-67
2023/04/17 03:37:05;;;;;;;22.63;11.88;;;;;;;;;;5019186;28;20063;-69
2023/04/17 03:39:30;;;;;;;23.20;12.52;;;;;;;;;;5016957;28;20029;-68
2023/04/17 03:41:56;;;;;;;19.63;11.85;;;;;;;;;;5018791;28;20026;-69
2023/04/17 03:44:21;;;;;;;19.38;11.55;;;;;;;;;;5019399;28;20094;-68
2023/04/17 03:46:46;;;;;;;24.55;13.23;;;;;;;;;;5019392;28;20099;-67
2023/04/17 03:49:11;;;;;;;27.52;14.20;;;;;;;;;;5016378;28;20071;-69
2023/04/17 03:51:37;;;;;;;26.27;12.43;;;;;;;;;;5016417;28;20029;-68
2023/04/17 03:54:02;;;;;;;26.58;12.38;;;;;;;;;;5012396;28;20032;-69
2023/04/17 03:56:27;;;;;;;25.25;13.32;;;;;;;;;;5017780;28;20025;-68
2023/04/17 03:58:52;;;;;;;25.02;13.45;;;;;;;;;;5019699;28;20020;-67
2023/04/17 04:01:18;;;;;;;22.35;12.15;;;;;;;;;;5013665;28;20534;-70
2023/04/17 04:03:43;;;;;;;22.85;11.85;;;;;;;;;;5014794;28;20022;-68
2023/04/17 04:06:08;;;;;;;21.35;12.70;;;;;;;;;;5018602;28;20063;-67
2023/04/17 04:08:34;;;;;;;20.55;11.30;;;;;;;;;;5010815;28;20021;-68
2023/04/17 04:11:00;;;;;;;25.98;13.45;;;;;;;;;;5015213;28;20108;-68
2023/04/17 04:13:25;;;;;;;20.88;11.68;;;;;;;;;;5018272;28;20030;-68
2023/04/17 04:15:50;;;;;;;24.08;12.82;;;;;;;;;;5013406;28;20140;-69
2023/04/17 04:18:16;;;;;;;22.73;13.55;;;;;;;;;;5017513;28;20037;-68
2023/04/17 04:20:41;;;;;;;21.25;12.07;;;;;;;;;;5011965;28;20034;-69
2023/04/17 04:23:06;;;;;;;24.00;13.68;;;;;;;;;;5017507;28;20029;-69
2023/04/17 04:25:32;;;;;;;24.65;13.70;;;;;;;;;;5016591;28;20045;-69
2023/04/17 04:28:00;;;;;;;23.60;12.55;;;;;;;;;;5017238;28;20379;-70
2023/04/17 04:30:25;;;;;;;23.95;13.90;;;;;;;;;;5020641;28;20024;-69
2023/04/17 04:32:51;;;;;;;22.13;12.35;;;;;;;;;;5017216;28;20029;-69
2023/04/17 04:35:16;;;;;;;21.98;12.80;;;;;;;;;;5012672;28;20403;-69
2023/04/17 04:37:41;;;;;;;26.42;13.77;;;;;;;;;;5018524;28;20755;-69
2023/04/17 04:40:10;;;;;;;23.83;13.35;;;;;;;;;;5016440;28;20017;-69
2023/04/17 04:42:36;;;;;;;24.73;14.00;;;;;;;;;;5017190;28;20073;-70
2023/04/17 04:45:03;;;;;;;24.77;13.82;;;;;;;;;;5013257;28;20024;-69
2023/04/17 04:47:28;;;;;;;24.40;12.02;;;;;;;;;;5016891;28;20022;-68
2023/04/17 04:49:53;;;;;;;27.10;13.95;;;;;;;;;;5015620;28;20107;-68
2023/04/17 04:52:18;;;;;;;20.40;13.30;;;;;;;;;;5017933;28;20052;-69
2023/04/17 04:54:44;;;;;;;25.35;13.65;;;;;;;;;;5013169;28;20025;-69
2023/04/17 04:57:09;;;;;;;25.67;13.45;;;;;;;;;;5013846;28;20037;-68
2023/04/17 04:59:34;;;;;;;28.83;12.88;;;;;;;;;;5015711;28;20060;-69
2023/04/17 05:01:59;;;;;;;23.05;13.70;;;;;;;;;;5016500;28;20266;-70
2023/04/17 05:04:25;;;;;;;23.45;14.15;;;;;;;;;;5013287;28;20362;-68
2023/04/17 05:06:51;;;;;;;20.75;12.32;;;;;;;;;;5010657;28;20413;-68
2023/04/17 05:09:16;;;;;;;22.42;12.88;;;;;;;;;;5008540;28;20108;-67
2023/04/17 05:11:41;;;;;;;21.88;13.05;;;;;;;;;;5007532;28;20014;-69
2023/04/17 05:14:06;;;;;;;21.95;12.82;;;;;;;;;;5015359;28;20032;-69
2023/04/17 05:16:32;;;;;;;28.95;12.23;;;;;;;;;;5015310;28;20013;-69
2023/04/17 05:18:57;;;;;;;22.55;13.75;;;;;;;;;;5014151;28;20025;-69
2023/04/17 05:21:22;;;;;;;21.98;13.18;;;;;;;;;;5012888;28;20032;-68
2023/04/17 05:23:47;;;;;;;24.40;12.70;;;;;;;;;;5012859;28;20733;-68
2023/04/17 05:26:13;;;;;;;24.13;13.70;;;;;;;;;;4996185;28;20044;-68
2023/04/17 05:28:38;;;;;;;26.83;13.27;;;;;;;;;;5015985;28;20036;-67
2023/04/17 05:31:03;;;;;;;22.67;11.82;;;;;;;;;;5016003;28;20021;-69
2023/04/17 05:33:28;;;;;;;25.27;11.90;;;;;;;;;;5015349;28;20168;-66
2023/04/17 05:35:54;;;;;;;20.08;11.77;;;;;;;;;;5003217;28;20513;-69
2023/04/17 05:38:19;;;;;;;22.27;13.48;;;;;;;;;;4999270;28;20060;-69
2023/04/17 05:40:45;;;;;;;18.63;11.68;;;;;;;;;;4995720;28;20136;-68
2023/04/17 05:43:10;;;;;;;25.60;12.07;;;;;;;;;;5009154;28;20033;-67
2023/04/17 05:45:36;;;;;;;18.80;10.55;;;;;;;;;;5008802;28;20039;-69
2023/04/17 05:48:01;;;;;;;26.77;10.90;;;;;;;;;;5003946;28;20829;-68
2023/04/17 05:50:27;;;;;;;18.20;10.57;;;;;;;;;;5007794;28;20031;-69
2023/04/17 05:52:52;;;;;;;20.25;11.75;;;;;;;;;;5008927;28;20360;-66
2023/04/17 05:55:18;;;;;;;20.15;11.15;;;;;;;;;;5003253;28;20031;-67
2023/04/17 05:57:44;;;;;;;21.52;11.13;;;;;;;;;;5004561;28;20080;-67
2023/04/17 06:00:11;;;;;;;19.35;10.77;;;;;;;;;;5006800;28;20070;-66
2023/04/17 06:02:36;;;;;;;21.70;10.43;;;;;;;;;;5010840;28;21340;-70
2023/04/17 06:05:03;;;;;;;18.95;10.55;;;;;;;;;;5002458;28;20828;-68
2023/04/17 06:07:28;;;;;;;18.40;10.68;;;;;;;;;;5010944;28;20021;-67
2023/04/17 06:09:54;;;;;;;18.27;10.68;;;;;;;;;;4989992;28;20694;-68
2023/04/17 06:12:19;;;;;;;20.67;11.82;;;;;;;;;;5003811;28;20394;-67
2023/04/17 06:14:44;;;;;;;22.08;11.73;;;;;;;;;;5016346;28;20029;-67
2023/04/17 06:17:11;;;;;;;20.95;11.18;;;;;;;;;;5017335;28;20017;-67
2023/04/17 06:19:36;;;;;;;22.92;11.48;;;;;;;;;;5018361;28;20039;-68
2023/04/17 06:22:01;;;;;;;21.58;11.65;;;;;;;;;;5017681;28;20025;-67
2023/04/17 06:24:27;;;;;;;25.95;12.07;;;;;;;;;;5016686;28;20049;-71
2023/04/17 06:26:52;;;;;;;18.92;11.32;;;;;;;;;;5017079;28;20018;-68
2023/04/17 06:29:17;;;;;;;25.33;12.10;;;;;;;;;;5019724;28;20038;-69
2023/04/17 06:31:42;;;;;;;31.95;14.60;;;;;;;;;;5018750;28;20702;-67
2023/04/17 06:34:11;;;;;;;21.95;11.85;;;;;;;;;;5018067;28;20026;-67
2023/04/17 06:36:37;;;;;;;19.73;11.80;;;;;;;;;;5019721;28;20479;-68
2023/04/17 06:39:02;;;;;;;19.10;12.05;;;;;;;;;;5019968;28;20029;-67
2023/04/17 06:41:27;;;;;;;19.90;12.30;;;;;;;;;;5016732;28;20081;-68
2023/04/17 06:43:52;;;;;;;23.77;13.75;;;;;;;;;;5020159;28;20016;-66
2023/04/17 06:46:18;;;;;;;23.33;11.88;;;;;;;;;;5017525;28;20117;-68
2023/04/17 06:48:43;;;;;;;24.88;12.35;;;;;;;;;;5019648;28;20025;-67
2023/04/17 06:51:08;;;;;;;24.17;12.80;;;;;;;;;;5016544;28;20057;-68
2023/04/17 06:53:33;;;;;;;25.10;12.73;;;;;;;;;;5020018;28;20112;-71
2023/04/17 06:55:59;;;;;;;22.73;12.65;;;;;;;;;;5017630;28;20097;-69
2023/04/17 06:58:24;;;;;;;19.60;12.38;;;;;;;;;;5032430;28;20026;-68
2023/04/17 07:00:49;;;;;;;19.83;13.07;;;;;;;;;;5018411;28;20029;-71
2023/04/17 07:03:15;;;;;;;24.73;13.15;;;;;;;;;;5017852;28;20049;-68
2023/04/17 07:05:42;;;;;;;22.23;11.85;;;;;;;;;;5017884;28;20032;-67
2023/04/17 07:08:08;;;;;;;24.70;12.82;;;;;;;;;;5018462;28;20017;-67
2023/04/17 07:10:33;;;;;;;23.17;12.50;;;;;;;;;;5019206;28;20390;-70
2023/04/17 07:12:59;;;;;;;27.50;12.43;;;;;;;;;;5015076;28;20636;-68
2023/04/17 07:15:25;;;;;;;24.25;13.25;;;;;;;;;;5019512;28;20029;-69
2023/04/17 07:17:50;;;;;;;32.95;12.32;;;;;;;;;;5017598;28;20672;-69
2023/04/17 07:20:16;;;;;;;20.45;12.52;;;;;;;;;;5014674;28;20030;-69
2023/04/17 07:22:42;;;;;;;22.02;12.82;;;;;;;;;;5019720;28;20060;-70
2023/04/17 07:25:07;;;;;;;27.40;13.48;;;;;;;;;;5019540;28;20029;-66
2023/04/17 07:27:32;;;;;;;21.00;12.25;;;;;;;;;;5006474;28;20055;-68
2023/04/17 07:29:57;;;;;;;21.75;12.07;;;;;;;;;;5016401;28;20021;-69
2023/04/17 07:32:25;;;;;;;24.55;11.65;;;;;;;;;;5017841;28;20442;-68
2023/04/17 07:34:51;;;;;;;23.42;12.35;;;;;;;;;;5020220;28;20566;-68
2023/04/17 07:37:16;;;;;;;21.42;10.95;;;;;;;;;;5016326;28;20141;-68
2023/04/17 07:39:41;;;;;;;22.38;11.85;;;;;;;;;;5013517;28;20029;-68
2023/04/17 07:42:07;;;;;;;22.67;12.27;;;;;;;;;;5010571;28;20075;-69
2023/04/17 07:44:37;;;;;;;24.92;11.40;;;;;;;;;;5013991;28;20018;-70
2023/04/17 07:47:02;;;;;;;20.58;11.65;;;;;;;;;;5023229;28;20029;-68
2023/04/17 07:49:27;;;;;;;19.45;11.43;;;;;;;;;;5024278;28;20052;-71
2023/04/17 07:51:53;;;;;;;22.30;12.02;;;;;;;;;;5026246;28;20148;-70
2023/04/17 07:54:18;;;;;;;21.40;11.43;;;;;;;;;;5016245;28;20044;-69
2023/04/17 07:56:45;;;;;;;18.60;9.68;;;;;;;;;;5016639;28;20080;-68
2023/04/17 07:59:11;;;;;;;23.80;11.50;;;;;;;;;;5012160;28;20033;-66
2023/04/17 08:01:36;;;;;;;24.38;11.65;;;;;;;;;;5021377;28;20013;-68
2023/04/17 08:04:01;;;;;;;23.33;10.27;;;;;;;;;;5020757;28;20439;-69
2023/04/17 08:06:27;;;;;;;19.50;11.27;;;;;;;;;;5018691;28;20028;-69
2023/04/17 08:08:52;;;;;;;20.40;10.80;;;;;;;;;;5013556;28;20312;-68
2023/04/17 08:11:17;;;;;;;28.25;12.15;;;;;;;;;;5035901;28;20147;-68
2023/04/17 08:13:42;;;;;;;19.15;10.15;;;;;;;;;;5011525;28;20034;-68
2023/04/17 08:16:08;;;;;;;22.40;10.68;;;;;;;;;;5018896;28;20021;-69
2023/04/17 08:18:36;;;;;;;17.02;9.70;;;;;;;;;;5017584;28;21054;-70
2023/04/17 08:21:01;;;;;;;14.52;8.90;;;;;;;;;;5013927;28;20030;-70
2023/04/17 08:23:26;;;;;;;20.00;9.65;;;;;;;;;;5013743;28;20025;-68
2023/04/17 08:25:52;;;;;;;21.63;10.38;;;;;;;;;;5016753;28;20025;-70
2023/04/17 08:28:17;;;;;;;18.35;11.25;;;;;;;;;;5015677;28;20033;-70
2023/04/17 08:30:42;;;;;;;19.35;10.98;;;;;;;;;;5010284;28;20080;-69
2023/04/17 08:33:07;;;;;;;23.95;10.55;;;;;;;;;;5013385;28;20025;-68
2023/04/17 08:35:33;;;;;;;19.25;10.73;;;;;;;;;;5019147;28;20049;-68
2023/04/17 08:37:58;;;;;;;20.17;10.82;;;;;;;;;;5017228;28;20021;-67
2023/04/17 08:40:25;;;;;;;17.60;9.48;;;;;;;;;;5016400;28;20021;-68
2023/04/17 08:42:51;;;;;;;20.33;11.57;;;;;;;;;;5013655;28;20036;-70
2023/04/17 08:45:17;;;;;;;19.05;10.32;;;;;;;;;;5018629;28;20014;-69
2023/04/17 08:47:42;;;;;;;17.67;9.90;;;;;;;;;;5018916;28;20044;-70
2023/04/17 08:50:10;;;;;;;17.83;10.40;;;;;;;;;;5018063;28;20025;-71
2023/04/17 08:52:39;;;;;;;23.17;11.77;;;;;;;;;;5013734;28;20105;-69
2023/04/17 08:55:05;;;;;;;17.85;10.75;;;;;;;;;;5014403;28;20033;-67
2023/04/17 08:57:30;;;;;;;20.75;9.60;;;;;;;;;;5019308;28;20478;-71
2023/04/17 08:59:55;;;;;;;16.83;8.77;;;;;;;;;;5015059;28;20029;-69
2023/04/17 09:02:21;;;;;;;22.58;9.50;;;;;;;;;;5014376;28;20124;-69
2023/04/17 09:04:46;;;;;;;16.23;8.65;;;;;;;;;;5019726;28;20044;-70
2023/04/17 09:07:12;;;;;;;18.50;8.90;;;;;;;;;;5019164;28;20125;-69
2023/04/17 09:09:51;;;;;;;21.30;8.70;;;;;;;;;;5018307;28;20033;-69
2023/04/17 09:12:17;;;;;;;15.93;8.55;;;;;;;;;;5019715;28;20017;-70
2023/04/17 09:14:42;;;;;;;18.73;7.95;;;;;;;;;;5016398;28;20118;-67
2023/04/17 09:17:07;;;;;;;14.95;8.63;;;;;;;;;;5019580;28;20086;-70
2023/04/17 09:19:32;;;;;;;21.15;9.18;;;;;;;;;;5013658;28;20022;-68
2023/04/17 09:22:16;;;;;;;17.08;8.85;;;;;;;;;;5015820;28;20025;-69
2023/04/17 09:24:43;;;;;;;15.75;8.25;;;;;;;;;;5017974;28;20017;-70
2023/04/17 09:27:18;;;;;;;17.17;8.65;;;;;;;;;;5011800;28;20038;-70
2023/04/17 09:30:00;;;;;;;15.98;9.55;;;;;;;;;;5020855;28;20052;-69
2023/04/17 09:32:25;;;;;;;14.80;8.18;;;;;;;;;;5018484;28;20029;-70
2023/04/17 09:34:52;;;;;;;18.45;8.10;;;;;;;;;;5010032;28;20449;-71
2023/04/17 09:37:17;;;;;;;13.90;7.70;;;;;;;;;;5019333;28;20564;-69
2023/04/17 09:39:58;;;;;;;13.85;7.57;;;;;;;;;;5015434;28;20038;-69
2023/04/17 09:42:24;;;;;;;17.02;7.45;;;;;;;;;;5012086;28;20026;-67
2023/04/17 09:44:49;;;;;;;17.70;7.72;;;;;;;;;;5019278;28;20030;-68
2023/04/17 09:47:16;;;;;;;14.73;7.85;;;;;;;;;;5013878;28;20033;-66
2023/04/17 09:49:43;;;;;;;11.88;7.10;;;;;;;;;;5013467;28;20192;-67
2023/04/17 09:52:09;;;;;;;16.50;8.25;;;;;;;;;;5019337;28;20029;-68
2023/04/17 09:54:37;;;;;;;15.88;7.20;;;;;;;;;;5015831;28;20040;-67
2023/04/17 09:57:06;;;;;;;12.23;6.75;;;;;;;;;;5018010;28;20022;-67
2023/04/17 09:59:32;;;;;;;17.17;8.10;;;;;;;;;;5014188;28;20123;-70
2023/04/17 10:01:59;;;;;;;13.13;6.70;;;;;;;;;;5016549;28;20029;-69
2023/04/17 10:04:25;;;;;;;12.65;7.53;;;;;;;;;;5031582;28;20017;-69
2023/04/17 10:06:50;;;;;;;18.45;7.70;;;;;;;;;;5016634;28;20108;-67
2023/04/17 10:09:15;;;;;;;15.88;7.60;;;;;;;;;;5016490;28;20141;-68
2023/04/17 10:11:42;;;;;;;12.35;6.80;;;;;;;;;;5014847;28;20018;-70
2023/04/17 10:14:14;;;;;;;15.43;7.00;;;;;;;;;;5017026;28;20037;-68
2023/04/17 10:16:42;;;;;;;15.35;7.43;;;;;;;;;;5017842;28;20064;-68
2023/04/17 10:19:26;;;;;;;13.25;6.88;;;;;;;;;;5015162;28;20372;-70
2023/04/17 10:22:10;;;;;;;13.00;7.47;;;;;;;;;;5014834;28;20149;-67
2023/04/17 10:24:35;;;;;;;12.95;7.13;;;;;;;;;;5015093;28;20033;-67
2023/04/17 10:27:01;;;;;;;10.75;6.47;;;;;;;;;;5011161;28;20037;-69
2023/04/17 10:29:45;;;;;;;13.85;6.22;;;;;;;;;;5013920;28;20029;-68
2023/04/17 10:32:10;;;;;;;13.23;6.90;;;;;;;;;;5016773;28;20104;-68
2023/04/17 10:34:36;;;;;;;12.38;6.65;;;;;;;;;;5015284;28;20128;-67
2023/04/17 10:37:02;;;;;;;16.63;6.78;;;;;;;;;;5016012;28;20055;-68
2023/04/17 10:39:46;;;;;;;16.88;6.32;;;;;;;;;;5017253;28;20028;-68
2023/04/17 10:42:16;;;;;;;12.57;6.82;;;;;;;;;;5015711;28;20038;-68
2023/04/17 10:44:43;;;;;;;14.05;6.30;;;;;;;;;;5018179;28;20044;-72
2023/04/17 10:47:09;;;;;;;12.85;6.07;;;;;;;;;;5016616;28;20033;-70
2023/04/17 10:49:47;;;;;;;10.30;6.32;;;;;;;;;;5016269;28;20022;-72
2023/04/17 10:52:31;;;;;;;11.68;6.63;;;;;;;;;;5016768;28;20037;-70
2023/04/17 10:55:08;;;;;;;14.90;7.28;;;;;;;;;;5017430;28;20028;-71
2023/04/17 10:57:52;;;;;;;15.85;6.97;;;;;;;;;;5018246;28;20537;-68
2023/04/17 11:00:18;;;;;;;12.60;6.78;;;;;;;;;;5018807;28;20699;-69
2023/04/17 11:02:44;;;;;;;15.25;7.40;;;;;;;;;;5020384;28;20029;-68
2023/04/17 11:05:09;;;;;;;13.68;6.07;;;;;;;;;;5020703;28;20037;-70
2023/04/17 11:07:35;;;;;;;13.23;6.53;;;;;;;;;;5020001;28;20017;-68
2023/04/17 11:10:05;;;;;;;12.10;7.05;;;;;;;;;;5019713;28;20033;-69
2023/04/17 11:12:30;;;;;;;15.55;6.72;;;;;;;;;;5020064;28;20021;-69
2023/04/17 11:15:00;;;;;;;19.67;6.20;;;;;;;;;;5018646;28;20584;-67
2023/04/17 11:17:25;;;;;;;10.73;6.05;;;;;;;;;;5018812;28;20580;-68
2023/04/17 11:19:52;;;;;;;11.07;7.28;;;;;;;;;;5019366;28;20041;-69
2023/04/17 11:22:18;;;;;;;13.73;6.55;;;;;;;;;;5021419;28;20021;-68
2023/04/17 11:24:43;;;;;;;17.95;6.88;;;;;;;;;;5017365;28;20042;-68
2023/04/17 11:27:08;;;;;;;13.07;6.93;;;;;;;;;;5019302;28;20036;-69
2023/04/17 11:29:33;;;;;;;14.65;7.43;;;;;;;;;;5018446;28;20040;-68
2023/04/17 11:32:00;;;;;;;13.27;7.60;;;;;;;;;;5020218;28;20032;-67
2023/04/17 11:34:25;;;;;;;13.35;7.00;;;;;;;;;;5019464;28;20022;-69
2023/04/17 11:36:55;;;;;;;14.88;6.68;;;;;;;;;;5020367;28;20036;-68
2023/04/17 11:39:21;;;;;;;14.40;6.72;;;;;;;;;;5018166;28;20029;-67
2023/04/17 11:41:48;;;;;;;15.00;7.45;;;;;;;;;;5020280;28;20025;-66
2023/04/17 11:44:14;;;;;;;18.65;8.10;;;;;;;;;;5021163;28;20017;-67
2023/04/17 11:46:39;;;;;;;15.55;7.45;;;;;;;;;;5013292;28;20116;-69
2023/04/17 11:49:05;;;;;;;11.85;6.85;;;;;;;;;;5017857;28;20061;-69
2023/04/17 11:51:30;;;;;;;18.35;6.40;;;;;;;;;;5010376;28;20072;-70
2023/04/17 11:53:56;;;;;;;14.25;6.97;;;;;;;;;;5007464;28;20017;-69
2023/04/17 11:56:27;;;;;;;13.23;6.15;;;;;;;;;;5019142;28;20037;-69
2023/04/17 11:58:53;;;;;;;11.57;6.65;;;;;;;;;;5018474;28;20028;-67
2023/04/17 12:01:19;;;;;;;20.23;7.13;;;;;;;;;;5016917;28;20021;-67
2023/04/17 12:03:46;;;;;;;10.35;6.13;;;;;;;;;;5015878;28;20018;-69
2023/04/17 12:06:12;;;;;;;16.83;6.60;;;;;;;;;;5018625;28;20043;-67
2023/04/17 12:08:55;;;;;;;10.85;6.25;;;;;;;;;;5016525;28;20033;-68
2023/04/17 12:11:31;;;;;;;11.77;6.80;;;;;;;;;;5020171;28;20652;-66
2023/04/17 12:13:57;;;;;;;13.43;6.72;;;;;;;;;;5019409;28;20030;-67
2023/04/17 12:16:25;;;;;;;8.73;5.55;;;;;;;;;;5017500;28;20148;-68
2023/04/17 12:18:51;;;;;;;10.57;5.63;;;;;;;;;;5016792;28;20108;-67
2023/04/17 12:21:19;;;;;;;11.18;5.70;;;;;;;;;;5016294;28;20112;-67
2023/04/17 12:23:44;;;;;;;10.18;5.75;;;;;;;;;;5014873;28;20107;-68
2023/04/17 12:26:18;;;;;;;10.00;5.65;;;;;;;;;;5015517;28;20025;-69
2023/04/17 12:28:44;;;;;;;16.88;7.20;;;;;;;;;;5018730;28;20026;-68
2023/04/17 12:31:09;;;;;;;10.27;5.57;;;;;;;;;;5017711;28;20453;-69
2023/04/17 12:33:34;;;;;;;13.95;5.93;;;;;;;;;;5015330;28;20013;-67
2023/04/17 12:36:00;;;;;;;10.50;5.25;;;;;;;;;;5015234;28;20130;-69
2023/04/17 12:38:26;;;;;;;11.40;5.85;;;;;;;;;;5015078;28;20119;-68
2023/04/17 12:40:51;;;;;;;13.85;6.53;;;;;;;;;;5016750;28;20117;-67
2023/04/17 12:43:16;;;;;;;11.05;5.85;;;;;;;;;;5014308;28;20049;-68
2023/04/17 12:45:44;;;;;;;11.13;6.22;;;;;;;;;;5016210;28;20116;-67
2023/04/17 12:48:10;;;;;;;14.30;6.32;;;;;;;;;;5017719;28;20006;-67
2023/04/17 12:50:42;;;;;;;14.65;6.75;;;;;;;;;;5014465;28;20036;-68
2023/04/17 12:53:11;;;;;;;11.77;6.55;;;;;;;;;;5014780;28;20131;-67
2023/04/17 12:55:37;;;;;;;11.80;6.50;;;;;;;;;;5015441;28;20960;-66
2023/04/17 12:58:03;;;;;;;10.07;5.93;;;;;;;;;;5017093;28;20067;-66
2023/04/17 13:00:28;;;;;;;19.60;7.15;;;;;;;;;;5014676;28;20065;-67
2023/04/17 13:02:53;;;;;;;13.52;6.88;;;;;;;;;;5013736;28;20100;-67
2023/04/17 13:05:21;;;;;;;15.85;7.40;;;;;;;;;;5017460;28;20352;-67
2023/04/17 13:07:46;;;;;;;16.70;7.60;;;;;;;;;;5015467;28;20017;-66
2023/04/17 13:10:12;;;;;;;12.82;6.93;;;;;;;;;;5016647;28;20029;-67
2023/04/17 13:12:37;;;;;;;15.10;7.35;;;;;;;;;;5014962;28;20086;-67
2023/04/17 13:15:02;;;;;;;15.60;7.13;;;;;;;;;;5009332;28;20029;-66
2023/04/17 13:17:27;;;;;;;17.38;6.90;;;;;;;;;;5016353;28;20029;-67
2023/04/17 13:19:53;;;;;;;14.57;6.63;;;;;;;;;;5017051;28;20116;-66
2023/04/17 13:22:19;;;;;;;15.63;6.72;;;;;;;;;;5015028;28;20036;-67
2023/04/17 13:24:44;;;;;;;12.57;6.63;;;;;;;;;;5014280;28;20549;-66
2023/04/17 13:27:10;;;;;;;11.80;6.55;;;;;;;;;;5016201;28;20030;-67
2023/04/17 13:29:35;;;;;;;16.95;7.03;;;;;;;;;;5016292;28;20470;-67
2023/04/17 13:32:00;;;;;;;13.43;7.20;;;;;;;;;;5016975;28;20021;-68
2023/04/17 13:34:26;;;;;;;12.27;6.97;;;;;;;;;;5014012;28;20049;-67
2023/04/17 13:36:51;;;;;;;11.05;6.05;;;;;;;;;;5016003;28;20228;-66
2023/04/17 13:39:16;;;;;;;15.75;7.00;;;;;;;;;;5013028;28;20017;-67
2023/04/17 13:41:42;;;;;;;15.70;7.18;;;;;;;;;;5015280;28;20540;-67
2023/04/17 13:44:07;;;;;;;14.23;7.10;;;;;;;;;;5014290;28;20557;-68
2023/04/17 13:46:33;;;;;;;13.05;6.80;;;;;;;;;;5012720;28;20032;-67
2023/04/17 13:48:58;;;;;;;15.55;7.10;;;;;;;;;;5014884;28;20014;-67
2023/04/17 13:51:25;;;;;;;11.95;7.28;;;;;;;;;;5014853;28;20056;-68
2023/04/17 13:53:50;;;;;;;15.10;7.32;;;;;;;;;;5013063;28;20533;-68
2023/04/17 13:56:16;;;;;;;13.25;7.22;;;;;;;;;;5016749;28;20037;-69
2023/04/17 13:58:43;;;;;;;12.55;6.75;;;;;;;;;;5009939;28;21492;-66
2023/04/17 14:01:11;;;;;;;12.45;7.10;;;;;;;;;;5014663;28;20041;-68
2023/04/17 14:03:36;;;;;;;12.13;6.95;;;;;;;;;;5013310;28;20156;-67
2023/04/17 14:06:01;;;;;;;14.15;7.22;;;;;;;;;;5014536;28;20779;-69
2023/04/17 14:08:26;;;;;;;17.60;8.98;;;;;;;;;;5010310;28;20286;-68
2023/04/17 14:10:51;;;;;;;13.68;7.80;;;;;;;;;;5016171;28;20112;-68
2023/04/17 14:13:17;;;;;;;18.88;7.60;;;;;;;;;;5014629;28;20266;-69
2023/04/17 14:15:42;;;;;;;14.50;8.90;;;;;;;;;;5011253;28;20110;-68
2023/04/17 14:18:08;;;;;;;13.52;8.55;;;;;;;;;;5020139;28;20029;-67